createdAt,value
2023-01-22T00:01:16.652Z,99.90
2023-01-22T00:03:46.500Z,99.90
2023-01-22T00:06:15.145Z,99.90
2023-01-22T00:08:42.754Z,99.90
2023-01-22T00:11:11.082Z,99.90
2023-01-22T00:13:38.911Z,99.90
2023-01-22T00:16:07.203Z,99.90
2023-01-22T00:18:34.825Z,99.90
2023-01-22T00:21:01.794Z,99.90
2023-01-22T00:23:31.753Z,99.90
2023-01-22T00:26:07.457Z,99.90
2023-01-22T00:28:34.824Z,99.90
2023-01-22T00:31:03.407Z,99.90
2023-01-22T00:33:31.939Z,99.90
2023-01-22T00:36:10.078Z,99.90
2023-01-22T00:38:37.987Z,99.90
2023-01-22T00:41:08.617Z,99.90
2023-01-22T00:43:40.694Z,99.90
2023-01-22T00:46:10.120Z,99.90
2023-01-22T00:48:37.866Z,99.90
2023-01-22T00:51:05.743Z,99.90
2023-01-22T00:53:33.104Z,99.90
2023-01-22T00:56:01.607Z,99.90
2023-01-22T00:58:30.239Z,99.90
2023-01-22T01:00:57.405Z,99.90
2023-01-22T01:03:27.489Z,99.90
2023-01-22T01:05:55.260Z,99.90
2023-01-22T01:08:24.814Z,99.90
2023-01-22T01:10:59.248Z,99.90
2023-01-22T01:13:27.020Z,99.90
2023-01-22T01:16:02.597Z,99.90
2023-01-22T01:18:31.208Z,99.90
2023-01-22T01:20:59.969Z,99.90
2023-01-22T01:23:28.586Z,99.90
2023-01-22T01:25:57.844Z,99.90
2023-01-22T01:28:25.600Z,99.90
2023-01-22T01:30:52.708Z,99.90
2023-01-22T01:33:21.226Z,99.90
2023-01-22T01:35:48.301Z,99.90
2023-01-22T01:38:15.599Z,99.90
2023-01-22T01:40:44.109Z,99.90
2023-01-22T01:43:16.719Z,99.90
2023-01-22T01:45:44.540Z,99.90
2023-01-22T01:48:41.827Z,99.90
2023-01-22T01:51:31.070Z,99.90
2023-01-22T01:54:00.080Z,99.90
2023-01-22T01:56:30.240Z,99.90
2023-01-22T01:59:05.457Z,99.90
2023-01-22T02:01:35.402Z,99.90
2023-01-22T02:04:03.249Z,99.90
2023-01-22T02:06:31.161Z,99.90
2023-01-22T02:09:02.278Z,99.90
2023-01-22T02:11:30.837Z,99.90
2023-01-22T02:14:05.711Z,99.90
2023-01-22T02:16:33.218Z,99.90
2023-01-22T02:19:00.700Z,99.90
2023-01-22T02:21:36.034Z,99.90
2023-01-22T02:24:06.445Z,99.90
2023-01-22T02:26:33.606Z,99.90
2023-01-22T02:29:01.030Z,99.90
2023-01-22T02:31:30.723Z,99.90
2023-01-22T02:33:59.338Z,99.90
2023-01-22T02:36:33.564Z,99.90
2023-01-22T02:39:00.994Z,99.90
2023-01-22T02:41:28.168Z,99.90
2023-01-22T02:43:55.657Z,99.90
2023-01-22T02:46:26.076Z,99.90
2023-01-22T02:48:53.609Z,99.90
2023-01-22T02:51:21.226Z,99.90
2023-01-22T02:53:50.500Z,99.90
2023-01-22T02:56:18.249Z,99.90
2023-01-22T02:58:46.158Z,99.90
2023-01-22T03:01:20.692Z,99.90
2023-01-22T03:03:51.249Z,99.90
2023-01-22T03:06:21.979Z,99.90
2023-01-22T03:09:00.511Z,99.90
2023-01-22T03:11:30.569Z,99.90
2023-01-22T03:14:23.855Z,99.90
2023-01-22T03:17:12.095Z,99.90
2023-01-22T03:22:26.710Z,99.90
2023-01-22T03:24:55.098Z,99.90
2023-01-22T03:27:26.265Z,99.90
2023-01-22T03:29:55.059Z,99.90
2023-01-22T03:32:24.035Z,99.90
2023-01-22T03:34:53.653Z,99.90
2023-01-22T03:37:22.196Z,99.90
2023-01-22T03:39:52.745Z,99.90
2023-01-22T03:42:32.292Z,99.90
2023-01-22T03:44:59.642Z,99.90
2023-01-22T03:47:29.607Z,99.90
2023-01-22T03:49:56.983Z,99.90
2023-01-22T03:52:24.884Z,99.90
2023-01-22T03:54:52.316Z,99.90
2023-01-22T03:57:19.827Z,99.90
2023-01-22T03:59:47.357Z,99.90
2023-01-22T04:02:14.707Z,99.90
2023-01-22T04:04:59.250Z,99.90
2023-01-22T04:07:28.301Z,99.90
2023-01-22T04:09:56.347Z,99.90
2023-01-22T04:12:23.520Z,99.90
2023-01-22T04:14:51.932Z,99.90
2023-01-22T04:17:19.228Z,99.90
2023-01-22T04:19:50.942Z,99.90
2023-01-22T04:22:38.223Z,99.90
2023-01-22T04:25:07.736Z,99.90
2023-01-22T04:27:37.820Z,99.90
2023-01-22T04:30:06.498Z,99.90
2023-01-22T04:32:34.615Z,99.90
2023-01-22T04:35:16.040Z,99.90
2023-01-22T04:37:50.673Z,99.90
2023-01-22T04:40:18.413Z,99.90
2023-01-22T04:42:47.557Z,99.90
2023-01-22T04:45:15.793Z,99.90
2023-01-22T04:47:44.930Z,99.90
2023-01-22T04:50:25.271Z,99.90
2023-01-22T04:52:54.083Z,99.90
2023-01-22T04:55:23.067Z,99.90
2023-01-22T04:58:00.806Z,99.90
2023-01-22T05:00:30.128Z,99.90
2023-01-22T05:03:00.785Z,99.90
2023-01-22T05:05:30.214Z,99.90
2023-01-22T05:07:58.022Z,99.90
2023-01-22T05:10:25.970Z,99.90
2023-01-22T05:12:54.483Z,99.90
2023-01-22T05:15:24.724Z,99.90
2023-01-22T05:17:55.466Z,99.90
2023-01-22T05:20:23.197Z,99.90
2023-01-22T05:22:50.647Z,99.90
2023-01-22T05:25:22.498Z,99.90
2023-01-22T05:27:49.560Z,99.90
2023-01-22T05:30:29.631Z,99.90
2023-01-22T05:33:10.438Z,99.90
2023-01-22T05:35:40.795Z,99.90
2023-01-22T05:38:07.919Z,99.90
2023-01-22T05:40:35.234Z,99.90
2023-01-22T05:43:03.706Z,99.90
2023-01-22T05:45:31.823Z,99.90
2023-01-22T05:48:27.596Z,99.90
2023-01-22T05:51:06.878Z,99.90
2023-01-22T05:53:35.805Z,99.90
2023-01-22T05:56:04.819Z,99.90
2023-01-22T05:58:36.133Z,99.90
2023-01-22T06:01:04.054Z,99.90
2023-01-22T06:03:40.095Z,99.90
2023-01-22T06:06:12.130Z,99.90
2023-01-22T06:08:39.823Z,99.90
2023-01-22T06:11:10.958Z,99.90
2023-01-22T06:13:39.387Z,99.90
2023-01-22T06:16:17.187Z,99.90
2023-01-22T06:19:03.269Z,99.90
2023-01-22T06:21:37.797Z,99.90
2023-01-22T06:24:05.839Z,99.90
2023-01-22T06:26:33.551Z,99.90
2023-01-22T06:29:01.609Z,99.90
2023-01-22T06:31:30.982Z,99.90
2023-01-22T06:33:58.440Z,99.90
2023-01-22T06:36:26.326Z,99.90
2023-01-22T06:38:54.639Z,99.90
2023-01-22T06:41:36.107Z,99.90
2023-01-22T06:44:05.590Z,99.90
2023-01-22T06:46:33.136Z,99.90
2023-01-22T06:49:06.006Z,99.90
2023-01-22T06:51:33.466Z,99.90
2023-01-22T06:54:00.883Z,99.90
2023-01-22T06:56:29.353Z,99.90
2023-01-22T06:58:58.287Z,99.90
2023-01-22T07:01:26.129Z,99.90
2023-01-22T07:03:53.400Z,99.90
2023-01-22T07:06:20.747Z,99.90
2023-01-22T07:08:47.914Z,99.90
2023-01-22T07:11:16.157Z,99.90
2023-01-22T07:13:43.357Z,99.90
2023-01-22T07:16:11.162Z,99.90
2023-01-22T07:18:41.305Z,99.90
2023-01-22T07:21:10.568Z,99.90
2023-01-22T07:23:37.635Z,99.90
2023-01-22T07:26:05.110Z,99.90
2023-01-22T07:28:33.055Z,99.90
2023-01-22T07:31:00.909Z,99.90
2023-01-22T07:33:27.973Z,99.90
2023-01-22T07:35:56.680Z,99.90
2023-01-22T07:38:26.651Z,99.90
2023-01-22T07:40:55.652Z,99.90
2023-01-22T07:43:23.125Z,99.90
2023-01-22T07:45:50.872Z,99.90
2023-01-22T07:48:17.965Z,99.90
2023-01-22T07:50:45.360Z,99.90
2023-01-22T07:53:12.469Z,99.90
2023-01-22T07:55:40.977Z,99.90
2023-01-22T07:58:08.123Z,99.90
2023-01-22T08:00:38.680Z,99.90
2023-01-22T08:03:10.610Z,99.90
2023-01-22T08:05:42.384Z,99.90
2023-01-22T08:08:17.556Z,99.90
2023-01-22T08:10:45.345Z,99.90
2023-01-22T08:13:12.582Z,99.90
2023-01-22T08:15:41.747Z,99.90
2023-01-22T08:18:10.908Z,99.90
2023-01-22T08:20:38.333Z,99.90
2023-01-22T08:23:05.362Z,99.90
2023-01-22T08:25:32.852Z,99.90
2023-01-22T08:28:03.530Z,99.90
2023-01-22T08:30:31.859Z,99.90
2023-01-22T08:32:58.912Z,99.90
2023-01-22T08:35:33.485Z,99.90
2023-01-22T08:38:01.460Z,99.90
2023-01-22T08:40:30.566Z,99.90
2023-01-22T08:42:58.009Z,99.90
2023-01-22T08:45:25.525Z,99.90
2023-01-22T08:47:58.855Z,99.90
2023-01-22T08:50:29.771Z,99.90
2023-01-22T08:53:00.451Z,99.90
2023-01-22T08:55:28.274Z,99.90
2023-01-22T08:57:56.862Z,99.90
2023-01-22T09:00:27.985Z,99.90
2023-01-22T09:02:59.918Z,99.90
2023-01-22T09:05:29.559Z,99.90
2023-01-22T09:07:57.065Z,99.90
2023-01-22T09:10:24.937Z,99.90
2023-01-22T09:12:52.438Z,99.90
2023-01-22T09:15:19.998Z,99.90
2023-01-22T09:17:47.016Z,99.90
2023-01-22T09:20:14.579Z,99.90
2023-01-22T09:22:44.331Z,99.90
2023-01-22T09:25:12.134Z,99.90
2023-01-22T09:27:39.237Z,99.90
2023-01-22T09:30:13.020Z,99.90
2023-01-22T09:32:40.985Z,99.90
2023-01-22T09:35:08.617Z,99.90
2023-01-22T09:37:35.936Z,99.90
2023-01-22T09:40:03.419Z,99.90
2023-01-22T09:42:37.703Z,99.90
2023-01-22T09:45:11.208Z,99.90
2023-01-22T09:47:49.023Z,99.90
2023-01-22T09:50:24.154Z,99.90
2023-01-22T09:52:55.152Z,99.90
2023-01-22T09:55:24.282Z,99.90
2023-01-22T09:58:00.510Z,99.90
2023-01-22T10:00:39.771Z,99.90
2023-01-22T10:03:24.932Z,99.90
2023-01-22T10:05:59.915Z,99.90
2023-01-22T10:08:33.258Z,99.90
2023-01-22T10:11:01.189Z,99.90
2023-01-22T10:13:39.893Z,99.90
2023-01-22T10:16:08.053Z,99.90
2023-01-22T10:18:44.883Z,99.90
2023-01-22T10:21:26.152Z,99.90
2023-01-22T10:23:59.799Z,99.90
2023-01-22T10:26:36.337Z,99.90
2023-01-22T10:29:09.595Z,99.90
2023-01-22T10:31:41.183Z,99.90
2023-01-22T10:34:33.419Z,99.90
2023-01-22T10:37:11.021Z,99.90
2023-01-22T10:39:47.513Z,99.90
2023-01-22T10:42:25.853Z,99.90
2023-01-22T10:45:15.446Z,99.90
2023-01-22T10:47:42.835Z,99.90
2023-01-22T10:50:16.795Z,99.90
2023-01-22T10:52:54.789Z,99.90
2023-01-22T10:55:24.055Z,99.90
2023-01-22T10:58:05.728Z,99.90
2023-01-22T11:00:52.476Z,99.90
2023-01-22T11:03:29.128Z,99.90
2023-01-22T11:06:01.508Z,99.90
2023-01-22T11:08:39.837Z,99.90
2023-01-22T11:11:10.800Z,99.90
2023-01-22T11:14:00.181Z,99.90
2023-01-22T11:16:32.041Z,99.90
2023-01-22T11:19:12.548Z,99.90
2023-01-22T11:21:47.338Z,99.90
2023-01-22T11:24:33.188Z,99.90
2023-01-22T11:27:11.004Z,99.90
2023-01-22T11:30:04.395Z,99.90
2023-01-22T11:32:50.565Z,99.90
2023-01-22T11:35:36.846Z,99.90
2023-01-22T11:38:10.473Z,99.90
2023-01-22T11:40:58.866Z,99.90
2023-01-22T11:43:55.786Z,99.90
2023-01-22T11:46:57.548Z,96.90
2023-01-22T11:49:42.505Z,99.40
2023-01-22T11:52:24.045Z,99.90
2023-01-22T11:55:17.048Z,99.90
2023-01-22T11:58:00.527Z,99.90
2023-01-22T12:00:33.533Z,98.40
2023-01-22T12:03:42.205Z,97.80
2023-01-22T12:06:15.285Z,94.10
2023-01-22T12:09:14.205Z,74.80
2023-01-22T12:12:11.746Z,77.20
2023-01-22T12:14:47.306Z,81.50
2023-01-22T12:17:41.850Z,73.30
2023-01-22T12:20:31.074Z,74.60
2023-01-22T12:23:13.543Z,74.20
2023-01-22T12:26:05.556Z,80.00
2023-01-22T12:28:39.289Z,61.50
2023-01-22T12:31:30.992Z,37.70
2023-01-22T12:34:01.910Z,8.30
2023-01-22T12:36:30.393Z,19.90
2023-01-22T12:39:03.458Z,25.30
2023-01-22T12:41:52.629Z,35.40
2023-01-22T12:44:41.611Z,31.40
2023-01-22T12:47:29.436Z,31.90
2023-01-22T12:49:56.620Z,41.10
2023-01-22T12:52:39.476Z,26.40
2023-01-22T12:55:35.018Z,15.40
2023-01-22T12:58:02.767Z,25.00
2023-01-22T13:00:39.105Z,19.80
2023-01-22T13:03:30.988Z,11.80
2023-01-22T13:06:00.680Z,23.60
2023-01-22T13:08:34.289Z,33.80
2023-01-22T13:11:12.840Z,25.20
2023-01-22T13:14:13.727Z,22.50
2023-01-22T13:16:49.795Z,11.30
2023-01-22T13:19:26.964Z,1.00
2023-01-22T13:21:59.272Z,12.50
2023-01-22T13:24:27.065Z,36.20
2023-01-22T13:26:58.795Z,38.80
2023-01-22T13:29:37.800Z,43.80
2023-01-22T13:32:16.659Z,34.20
2023-01-22T13:34:46.320Z,34.70
2023-01-22T13:37:27.251Z,24.70
2023-01-22T13:39:54.905Z,32.80
2023-01-22T13:42:24.671Z,35.30
2023-01-22T13:44:52.323Z,45.90
2023-01-22T13:47:34.551Z,56.80
2023-01-22T13:50:02.595Z,62.90
2023-01-22T13:52:31.562Z,62.70
2023-01-22T13:55:04.163Z,63.70
2023-01-22T13:57:31.621Z,63.20
2023-01-22T14:00:01.268Z,71.00
2023-01-22T14:02:32.347Z,70.70
2023-01-22T14:05:00.295Z,67.70
2023-01-22T14:07:36.920Z,67.60
2023-01-22T14:10:30.791Z,75.50
2023-01-22T14:13:07.210Z,71.80
2023-01-22T14:15:34.803Z,76.60
2023-01-22T14:18:09.397Z,78.60
2023-01-22T14:20:40.594Z,67.40
2023-01-22T14:23:08.058Z,65.10
2023-01-22T14:25:48.073Z,59.70
2023-01-22T14:28:16.399Z,59.60
2023-01-22T14:30:43.906Z,56.30
2023-01-22T14:33:14.617Z,41.90
2023-01-22T14:35:42.369Z,36.20
2023-01-22T14:38:09.471Z,44.80
2023-01-22T14:40:36.806Z,46.50
2023-01-22T14:43:04.373Z,29.60
2023-01-22T14:45:31.724Z,40.00
2023-01-22T14:48:04.014Z,43.50
2023-01-22T14:50:31.851Z,38.80
2023-01-22T14:52:59.265Z,42.10
2023-01-22T14:55:26.706Z,26.70
2023-01-22T14:57:54.804Z,40.20
2023-01-22T15:00:22.474Z,39.20
2023-01-22T15:02:49.914Z,40.70
2023-01-22T15:05:17.524Z,28.30
2023-01-22T15:07:44.602Z,34.50
2023-01-22T15:10:12.420Z,30.80
2023-01-22T15:12:39.882Z,16.40
2023-01-22T15:15:08.928Z,34.80
2023-01-22T15:17:36.510Z,32.90
2023-01-22T15:20:05.377Z,29.10
2023-01-22T15:22:35.269Z,11.00
2023-01-22T15:25:02.693Z,15.40
2023-01-22T15:27:29.950Z,11.60
2023-01-22T15:30:00.041Z,6.70
2023-01-22T15:32:30.919Z,6.30
2023-01-22T15:34:58.858Z,14.40
2023-01-22T15:37:26.231Z,14.90
2023-01-22T15:39:54.976Z,5.00
2023-01-22T15:42:22.100Z,1.00
2023-01-22T15:44:52.060Z,1.00
2023-01-22T15:47:19.337Z,1.00
2023-01-22T15:49:47.211Z,1.00
2023-01-22T15:52:14.360Z,2.80
2023-01-22T15:54:46.292Z,1.00
2023-01-22T15:57:15.844Z,1.00
2023-01-22T15:59:43.284Z,1.00
2023-01-22T16:02:11.296Z,1.00
2023-01-22T16:04:44.736Z,1.00
2023-01-22T16:07:12.194Z,1.00
2023-01-22T16:09:40.236Z,1.00
2023-01-22T16:12:07.851Z,1.00
2023-01-22T16:14:36.669Z,1.00
2023-01-22T16:17:04.922Z,1.00
2023-01-22T16:19:32.363Z,1.00
2023-01-22T16:22:02.329Z,1.00
2023-01-22T16:24:29.854Z,1.00
2023-01-22T16:26:58.847Z,1.00
2023-01-22T16:29:26.241Z,1.00
2023-01-22T16:31:54.792Z,1.00
2023-01-22T16:34:24.458Z,1.00
2023-01-22T16:36:57.726Z,1.00
2023-01-22T16:39:28.180Z,1.00
2023-01-22T16:41:56.847Z,1.00
2023-01-22T16:44:27.626Z,1.00
2023-01-22T16:46:59.896Z,1.00
2023-01-22T16:49:32.644Z,1.00
2023-01-22T16:52:16.774Z,99.90
2023-01-22T16:54:49.295Z,1.00
2023-01-22T16:57:20.196Z,99.90
2023-01-22T16:59:49.871Z,1.00
2023-01-22T17:02:21.313Z,1.00
2023-01-22T17:04:53.142Z,1.00
2023-01-22T17:07:32.628Z,1.00
2023-01-22T17:10:05.320Z,1.00
2023-01-22T17:12:37.761Z,1.00
2023-01-22T17:15:06.740Z,1.00
2023-01-22T17:17:33.886Z,1.00
2023-01-22T17:20:01.314Z,1.00
2023-01-22T17:22:29.139Z,1.00
2023-01-22T17:24:59.585Z,1.00
2023-01-22T17:27:33.233Z,1.00
2023-01-22T17:30:00.926Z,1.00
2023-01-22T17:32:28.129Z,1.00
2023-01-22T17:34:55.469Z,1.00
2023-01-22T17:37:22.580Z,1.00
2023-01-22T17:39:54.563Z,1.00
2023-01-22T17:42:24.905Z,1.00
2023-01-22T17:44:52.393Z,1.00
2023-01-22T17:47:19.576Z,1.00
2023-01-22T17:49:49.111Z,1.00
2023-01-22T17:52:21.948Z,1.00
2023-01-22T17:54:54.826Z,1.00
2023-01-22T17:57:24.311Z,1.00
2023-01-22T17:59:52.038Z,1.00
2023-01-22T18:02:33.362Z,1.00
2023-01-22T18:05:01.039Z,1.00
2023-01-22T18:07:29.010Z,1.00
2023-01-22T18:09:57.105Z,1.00
2023-01-22T18:12:27.573Z,1.00
2023-01-22T18:14:58.332Z,1.00
2023-01-22T18:17:25.639Z,1.00
2023-01-22T18:19:56.123Z,1.00
2023-01-22T18:22:26.305Z,99.90
2023-01-22T18:24:53.680Z,1.00
2023-01-22T18:27:20.749Z,99.90
2023-01-22T18:29:48.355Z,99.90
2023-01-22T18:32:15.447Z,99.90
2023-01-22T18:34:43.260Z,99.90
2023-01-22T18:37:11.965Z,99.90
2023-01-22T18:39:43.999Z,1.00
2023-01-22T18:42:13.873Z,99.90
2023-01-22T18:44:41.315Z,99.90
2023-01-22T18:47:11.349Z,99.90
2023-01-22T18:49:42.477Z,1.00
2023-01-22T18:52:13.547Z,1.00
2023-01-22T18:54:45.284Z,1.00
2023-01-22T18:57:12.478Z,1.00
2023-01-22T18:59:40.264Z,1.00
2023-01-22T19:02:08.898Z,1.00
2023-01-22T19:04:36.606Z,1.00
2023-01-22T19:07:05.893Z,1.00
2023-01-22T19:09:33.500Z,1.00
2023-01-22T19:12:01.307Z,1.00
2023-01-22T19:14:33.203Z,1.00
2023-01-22T19:17:00.698Z,1.00
2023-01-22T19:19:28.340Z,1.00
2023-01-22T19:21:56.178Z,1.00
2023-01-22T19:24:26.839Z,1.00
2023-01-22T19:26:55.093Z,1.00
2023-01-22T19:29:23.753Z,1.00
2023-01-22T19:31:55.768Z,1.00
2023-01-22T19:34:29.150Z,1.00
2023-01-22T19:37:05.469Z,6.50
2023-01-22T19:39:35.182Z,8.90
2023-01-22T19:42:05.169Z,5.20
2023-01-22T19:44:37.083Z,10.80
2023-01-22T19:47:06.624Z,9.90
2023-01-22T19:49:34.284Z,1.00
2023-01-22T19:52:01.489Z,1.00
2023-01-22T19:54:29.999Z,5.80
2023-01-22T19:56:57.354Z,3.80
2023-01-22T19:59:27.036Z,2.30
2023-01-22T20:01:55.513Z,1.90
2023-01-22T20:04:29.800Z,2.70
2023-01-22T20:06:59.809Z,3.50
2023-01-22T20:09:28.415Z,1.00
2023-01-22T20:11:56.529Z,1.00
2023-01-22T20:14:29.704Z,1.00
2023-01-22T20:16:58.314Z,5.90
2023-01-22T20:19:26.676Z,4.20
2023-01-22T20:21:54.171Z,1.00
2023-01-22T20:24:21.726Z,6.10
2023-01-22T20:26:48.817Z,7.30
2023-01-22T20:29:16.232Z,8.50
2023-01-22T20:31:44.812Z,8.70
2023-01-22T20:34:12.287Z,11.90
2023-01-22T20:36:40.124Z,4.70
2023-01-22T20:39:07.601Z,10.50
2023-01-22T20:41:34.756Z,1.00
2023-01-22T20:44:02.424Z,2.40
2023-01-22T20:46:29.735Z,1.00
2023-01-22T20:48:58.853Z,1.50
2023-01-22T20:51:28.595Z,1.00
2023-01-22T20:54:00.411Z,5.80
2023-01-22T20:56:32.736Z,6.70
2023-01-22T20:59:06.719Z,9.70
2023-01-22T21:01:34.710Z,5.80
2023-01-22T21:04:02.928Z,6.80
2023-01-22T21:06:32.090Z,10.10
2023-01-22T21:09:05.227Z,5.50
2023-01-22T21:11:36.001Z,12.40
2023-01-22T21:14:07.725Z,12.50
2023-01-22T21:16:37.751Z,6.50
2023-01-22T21:19:08.679Z,21.90
2023-01-22T21:21:38.884Z,23.00
2023-01-22T21:24:06.686Z,23.30
2023-01-22T21:26:34.133Z,25.70
2023-01-22T21:29:09.241Z,29.40
2023-01-22T21:31:37.737Z,25.90
2023-01-22T21:34:08.688Z,20.70
2023-01-22T21:36:39.180Z,27.80
2023-01-22T21:39:14.336Z,27.40
2023-01-22T21:41:42.622Z,34.30
2023-01-22T21:44:30.756Z,36.30
2023-01-22T21:46:59.607Z,39.40
2023-01-22T21:49:27.929Z,45.80
2023-01-22T21:52:00.968Z,57.40
2023-01-22T21:54:37.909Z,63.90
2023-01-22T21:57:15.211Z,60.60
2023-01-22T21:59:43.933Z,61.70
2023-01-22T22:02:22.371Z,61.30
2023-01-22T22:04:49.935Z,59.80
2023-01-22T22:07:18.102Z,60.90
2023-01-22T22:09:45.454Z,59.10
2023-01-22T22:12:12.581Z,59.70
2023-01-22T22:14:39.854Z,60.80
2023-01-22T22:17:07.771Z,58.90
2023-01-22T22:19:35.405Z,60.00
2023-01-22T22:22:02.683Z,62.30
2023-01-22T22:24:30.037Z,63.50
2023-01-22T22:26:57.311Z,64.20
2023-01-22T22:29:24.717Z,60.70
2023-01-22T22:31:52.037Z,61.20
2023-01-22T22:34:19.450Z,63.30
2023-01-22T22:36:46.612Z,60.80
2023-01-22T22:39:14.051Z,60.50
2023-01-22T22:41:41.129Z,58.30
2023-01-22T22:44:10.427Z,60.20
2023-01-22T22:46:39.101Z,60.90
2023-01-22T22:49:07.267Z,60.00
2023-01-22T22:51:39.082Z,56.70
2023-01-22T22:54:16.291Z,60.80
2023-01-22T22:56:48.448Z,65.40
2023-01-22T22:59:19.757Z,71.30
2023-01-22T23:01:50.187Z,63.70
2023-01-22T23:04:20.597Z,63.10
2023-01-22T23:06:47.916Z,60.80
2023-01-22T23:09:19.633Z,67.00
2023-01-22T23:11:47.425Z,72.20
2023-01-22T23:14:14.814Z,71.00
2023-01-22T23:16:43.334Z,72.70
2023-01-22T23:19:16.367Z,75.50
2023-01-22T23:21:44.282Z,76.90
2023-01-22T23:24:13.872Z,75.70
2023-01-22T23:26:42.440Z,71.10
2023-01-22T23:29:12.191Z,71.00
2023-01-22T23:31:39.791Z,74.70
2023-01-22T23:34:10.668Z,77.90
2023-01-22T23:36:39.649Z,80.10
2023-01-22T23:39:06.987Z,78.40
2023-01-22T23:41:34.615Z,83.50
2023-01-22T23:44:02.211Z,80.30
2023-01-22T23:46:36.299Z,80.30
2023-01-22T23:49:04.572Z,79.90
2023-01-22T23:51:31.880Z,80.60
2023-01-22T23:54:02.110Z,85.00
2023-01-22T23:56:32.496Z,84.20
2023-01-22T23:59:00.391Z,86.10
